Time;durP1;ratioP1;P1;durP2;ratioP2;P2;SDS_P1;SDS_P2;PMS_P1;PMS_P2;Temp;Humidity;BMP_temperature;BMP_pressure;BME280_temperature;BME280_humidity;BME280_pressure;Samples;Min_cycle;Max_cycle;Signal;HPM_P1;HPM_P2
2021/04/30 00:01:58;;;;;;;52.60;31.50;;;7.00;99.90;;;;;;5054663;28;20458;-65
2021/04/30 00:04:24;;;;;;;57.90;33.20;;;7.00;99.90;;;;;;5036132;28;20025;-65
2021/04/30 00:06:49;;;;;;;49.45;29.10;;;7.00;99.90;;;;;;5054612;28;20021;-65
2021/04/30 00:09:15;;;;;;;56.17;35.28;;;7.00;99.90;;;;;;5054552;28;20081;-65
2021/04/30 00:11:40;;;;;;;56.53;34.00;;;6.90;99.90;;;;;;5053959;28;20086;-65
2021/04/30 00:14:06;;;;;;;55.50;33.72;;;6.90;99.90;;;;;;5036067;28;20033;-65
2021/04/30 00:16:32;;;;;;;59.40;33.70;;;6.90;99.90;;;;;;5054348;28;20142;-65
2021/04/30 00:18:57;;;;;;;58.72;34.42;;;7.00;99.90;;;;;;5054358;28;20091;-65
2021/04/30 00:21:23;;;;;;;55.70;36.00;;;7.00;99.90;;;;;;5054085;28;20051;-65
2021/04/30 00:23:48;;;;;;;61.65;34.35;;;6.90;99.90;;;;;;5036310;28;20430;-65
2021/04/30 00:26:14;;;;;;;52.58;32.83;;;7.00;99.90;;;;;;5054322;28;20078;-65
2021/04/30 00:28:40;;;;;;;56.72;34.33;;;7.00;99.90;;;;;;5053946;28;20077;-65
2021/04/30 00:31:05;;;;;;;57.97;32.60;;;7.00;99.90;;;;;;5036216;28;20033;-65
2021/04/30 00:33:31;;;;;;;56.83;35.33;;;6.90;99.90;;;;;;5053663;28;20165;-65
2021/04/30 00:35:58;;;;;;;62.97;36.17;;;6.90;99.90;;;;;;5054113;28;20072;-65
2021/04/30 00:38:23;;;;;;;72.45;36.65;;;7.00;99.90;;;;;;5054106;28;20032;-65
2021/04/30 00:40:49;;;;;;;73.13;39.97;;;7.00;99.90;;;;;;5035634;28;20025;-65
2021/04/30 00:43:16;;;;;;;58.22;36.50;;;6.90;99.90;;;;;;5036208;28;20048;-65
2021/04/30 00:45:42;;;;;;;67.50;38.97;;;6.90;99.90;;;;;;5053452;28;20497;-65
2021/04/30 00:48:10;;;;;;;61.05;36.90;;;6.90;99.90;;;;;;5053728;28;20033;-65
2021/04/30 00:50:35;;;;;;;63.13;38.60;;;7.00;99.90;;;;;;5035958;28;20024;-65
2021/04/30 00:53:01;;;;;;;59.78;36.35;;;6.90;99.90;;;;;;5036062;28;20425;-65
2021/04/30 00:55:27;;;;;;;59.05;34.78;;;6.90;99.90;;;;;;5053306;28;20060;-65
2021/04/30 00:57:55;;;;;;;60.92;35.83;;;7.00;99.90;;;;;;5053589;28;20071;-65
2021/04/30 01:00:23;;;;;;;61.33;34.90;;;7.00;99.90;;;;;;5053804;28;20105;-65
2021/04/30 01:02:49;;;;;;;69.25;35.67;;;7.00;99.90;;;;;;5035656;28;20386;-65
2021/04/30 01:05:16;;;;;;;68.38;36.58;;;7.00;99.90;;;;;;5053514;28;20379;-65
2021/04/30 01:07:42;;;;;;;64.32;37.47;;;6.90;99.90;;;;;;5053501;28;20025;-65
2021/04/30 01:10:08;;;;;;;57.85;36.90;;;6.90;99.90;;;;;;5035629;28;20094;-65
2021/04/30 01:12:35;;;;;;;66.28;36.45;;;6.90;99.90;;;;;;5053739;28;20036;-65
2021/04/30 01:15:00;;;;;;;65.32;35.90;;;7.00;99.90;;;;;;5053362;28;20048;-65
2021/04/30 01:17:27;;;;;;;63.03;37.35;;;7.00;99.90;;;;;;5035625;28;20467;-65
2021/04/30 01:19:55;;;;;;;58.88;36.53;;;7.00;99.90;;;;;;5053698;28;20032;-65
2021/04/30 01:22:42;;;;;;;66.22;35.50;;;7.00;99.90;;;;;;5053089;28;20382;-64
2021/04/30 01:25:12;;;;;;;71.90;39.08;;;7.00;99.90;;;;;;5053348;28;20068;-64
2021/04/30 01:27:38;;;;;;;61.60;36.78;;;7.00;99.90;;;;;;5053057;28;20040;-64
2021/04/30 01:30:08;;;;;;;66.97;37.10;;;7.00;99.90;;;;;;5053064;28;20021;-64
2021/04/30 01:32:33;;;;;;;61.83;37.00;;;7.00;99.90;;;;;;5035457;28;20032;-64
2021/04/30 01:34:59;;;;;;;58.85;37.67;;;7.00;99.90;;;;;;5018602;28;20029;-64
2021/04/30 01:37:25;;;;;;;59.70;35.83;;;7.00;99.90;;;;;;5053519;28;20021;-64
2021/04/30 01:39:52;;;;;;;67.18;38.67;;;7.00;99.90;;;;;;5035408;28;20025;-64
2021/04/30 01:42:18;;;;;;;62.95;37.38;;;7.00;99.90;;;;;;5053145;28;20086;-64
2021/04/30 01:44:43;;;;;;;62.83;39.00;;;7.00;99.90;;;;;;5053092;28;20459;-65
2021/04/30 01:47:09;;;;;;;66.63;37.25;;;7.00;99.90;;;;;;5035699;28;20029;-64
2021/04/30 01:49:35;;;;;;;63.35;37.42;;;7.10;99.90;;;;;;5053378;28;20396;-64
2021/04/30 01:52:00;;;;;;;63.53;38.67;;;7.10;99.90;;;;;;5034956;28;20025;-64
2021/04/30 01:54:26;;;;;;;68.32;39.53;;;7.10;99.90;;;;;;5053100;28;20041;-65
2021/04/30 01:56:51;;;;;;;63.30;38.03;;;7.10;99.90;;;;;;5053034;28;20025;-64
2021/04/30 01:59:17;;;;;;;70.00;39.53;;;7.10;99.90;;;;;;5053302;28;20021;-65
2021/04/30 02:01:43;;;;;;;70.60;39.90;;;7.10;99.90;;;;;;5035639;28;20052;-64
2021/04/30 02:04:11;;;;;;;68.63;36.40;;;7.10;99.90;;;;;;5056171;28;20044;-65
2021/04/30 02:06:38;;;;;;;76.43;40.13;;;7.10;99.90;;;;;;5039214;28;20017;-64
2021/04/30 02:09:06;;;;;;;74.80;37.83;;;7.10;99.90;;;;;;5056562;28;20017;-65
2021/04/30 02:11:32;;;;;;;70.45;41.15;;;7.10;99.90;;;;;;5056805;28;20052;-64
2021/04/30 02:13:57;;;;;;;70.35;41.67;;;7.20;99.90;;;;;;5039086;28;20028;-64
2021/04/30 02:16:23;;;;;;;64.25;37.70;;;7.10;99.90;;;;;;5056653;28;20068;-65
2021/04/30 02:18:48;;;;;;;72.55;41.00;;;7.20;99.90;;;;;;5056634;28;20029;-65
2021/04/30 02:21:13;;;;;;;69.85;40.30;;;7.20;99.90;;;;;;5056623;28;20438;-64
2021/04/30 02:23:39;;;;;;;70.55;41.38;;;7.20;99.90;;;;;;5038196;28;20119;-64
2021/04/30 02:26:05;;;;;;;67.13;39.42;;;7.20;99.90;;;;;;5056562;28;20048;-70
2021/04/30 02:28:31;;;;;;;66.00;38.83;;;7.20;99.90;;;;;;5056457;28;20344;-70
2021/04/30 02:30:57;;;;;;;71.32;41.45;;;7.30;99.90;;;;;;5022128;28;20040;-70
2021/04/30 02:33:23;;;;;;;71.55;41.75;;;7.20;99.90;;;;;;5038406;28;20410;-70
2021/04/30 02:35:49;;;;;;;75.43;42.63;;;7.20;99.90;;;;;;5021408;28;20021;-70
2021/04/30 02:38:17;;;;;;;83.85;42.08;;;7.20;99.90;;;;;;5056022;28;20359;-70
2021/04/30 02:40:46;;;;;;;75.35;43.88;;;7.30;99.90;;;;;;5038521;28;20021;-70
2021/04/30 02:43:15;;;;;;;78.28;42.95;;;7.30;99.90;;;;;;5038163;28;20013;-70
2021/04/30 02:45:42;;;;;;;80.22;43.85;;;7.30;99.90;;;;;;5055866;28;20029;-70
2021/04/30 02:48:14;;;;;;;75.95;42.85;;;7.30;99.90;;;;;;5056105;28;20028;-70
2021/04/30 02:50:42;;;;;;;70.97;41.15;;;7.30;99.90;;;;;;5055520;28;20021;-65
2021/04/30 02:53:08;;;;;;;74.20;41.78;;;7.30;99.90;;;;;;5037987;28;20056;-65
2021/04/30 02:55:34;;;;;;;81.10;45.38;;;7.30;99.90;;;;;;5055423;28;20080;-65
2021/04/30 02:58:00;;;;;;;81.57;45.97;;;7.30;99.90;;;;;;5055416;28;20025;-65
2021/04/30 03:00:28;;;;;;;78.70;45.97;;;7.30;99.90;;;;;;5055326;28;20021;-65
2021/04/30 03:02:54;;;;;;;86.75;46.70;;;7.30;99.90;;;;;;5055825;28;20021;-65
2021/04/30 03:05:20;;;;;;;89.68;48.17;;;7.30;99.90;;;;;;5037689;28;20029;-63
2021/04/30 03:07:45;;;;;;;85.57;46.25;;;7.30;99.90;;;;;;5055784;28;20103;-64
2021/04/30 03:10:12;;;;;;;86.03;47.78;;;7.30;99.90;;;;;;5055446;28;20377;-64
2021/04/30 03:12:38;;;;;;;87.82;49.08;;;7.30;99.90;;;;;;5055125;28;20112;-64
2021/04/30 03:15:05;;;;;;;90.68;47.53;;;7.30;99.90;;;;;;5037514;28;20159;-65
2021/04/30 03:17:30;;;;;;;86.15;47.65;;;7.40;99.90;;;;;;5055569;28;20021;-66
2021/04/30 03:19:56;;;;;;;106.03;50.55;;;7.30;99.90;;;;;;5055016;28;20463;-66
2021/04/30 03:22:22;;;;;;;90.20;49.80;;;7.30;99.90;;;;;;5055512;28;20025;-65
2021/04/30 03:24:47;;;;;;;85.65;48.25;;;7.30;99.90;;;;;;5037846;28;20048;-63
2021/04/30 03:27:13;;;;;;;102.53;51.13;;;7.20;99.90;;;;;;5055410;28;20052;-63
2021/04/30 03:29:39;;;;;;;96.88;50.70;;;7.20;99.90;;;;;;5055348;28;20025;-65
2021/04/30 03:32:07;;;;;;;92.65;50.63;;;7.20;99.90;;;;;;5055047;28;20084;-65
2021/04/30 03:34:32;;;;;;;97.25;51.65;;;7.30;99.90;;;;;;5037651;28;20021;-64
2021/04/30 03:36:58;;;;;;;97.18;50.45;;;7.30;99.90;;;;;;5037576;28;20087;-63
2021/04/30 03:39:23;;;;;;;93.43;51.53;;;7.30;99.90;;;;;;5055114;28;20025;-65
2021/04/30 03:41:49;;;;;;;98.28;51.55;;;7.30;99.90;;;;;;5055109;28;20032;-64
2021/04/30 03:44:15;;;;;;;92.22;50.00;;;7.30;99.90;;;;;;5055085;28;20021;-64
2021/04/30 03:46:40;;;;;;;94.38;48.28;;;7.30;99.90;;;;;;5054759;28;20040;-64
2021/04/30 03:49:06;;;;;;;93.13;51.17;;;7.40;99.90;;;;;;5055018;28;20535;-66
2021/04/30 03:51:31;;;;;;;90.55;49.25;;;7.40;99.90;;;;;;5037082;28;20029;-64
2021/04/30 03:53:57;;;;;;;91.90;51.20;;;7.40;99.90;;;;;;5054869;28;20033;-64
2021/04/30 03:56:22;;;;;;;91.65;49.88;;;7.40;99.90;;;;;;5054125;28;20421;-64
2021/04/30 03:58:48;;;;;;;93.07;49.47;;;7.40;99.90;;;;;;5054509;28;20029;-64
2021/04/30 04:01:13;;;;;;;90.35;49.22;;;7.50;99.90;;;;;;5054744;28;20025;-64
2021/04/30 04:03:39;;;;;;;91.13;49.15;;;7.50;99.90;;;;;;5054402;28;20027;-64
2021/04/30 04:06:05;;;;;;;92.35;49.40;;;7.50;99.90;;;;;;5054151;28;20037;-63
2021/04/30 04:08:31;;;;;;;90.32;50.78;;;7.40;99.90;;;;;;5054682;28;20025;-63
2021/04/30 04:10:57;;;;;;;92.35;49.88;;;7.40;99.90;;;;;;5054322;28;20033;-66
2021/04/30 04:13:25;;;;;;;89.70;50.00;;;7.50;99.90;;;;;;5054570;28;20032;-66
2021/04/30 04:15:51;;;;;;;93.50;49.22;;;7.50;99.90;;;;;;5054426;28;20108;-66
2021/04/30 04:18:18;;;;;;;92.22;49.22;;;7.50;99.90;;;;;;5054389;28;20028;-65
2021/04/30 04:20:44;;;;;;;85.95;48.35;;;7.50;99.90;;;;;;5036351;28;20078;-65
2021/04/30 04:23:10;;;;;;;90.60;51.58;;;7.60;99.90;;;;;;5054388;28;20454;-65
2021/04/30 04:25:37;;;;;;;96.97;49.90;;;7.50;99.90;;;;;;5053976;28;20078;-65
2021/04/30 04:28:04;;;;;;;90.32;50.88;;;7.50;99.90;;;;;;5054290;28;20108;-65
2021/04/30 04:30:29;;;;;;;91.80;50.22;;;7.50;99.90;;;;;;5053989;28;20029;-65
2021/04/30 04:32:55;;;;;;;89.03;49.45;;;7.50;99.90;;;;;;5036623;28;20052;-65
2021/04/30 04:35:21;;;;;;;95.75;51.85;;;7.60;99.90;;;;;;5053564;28;20055;-65
2021/04/30 04:37:47;;;;;;;98.45;53.33;;;7.60;99.90;;;;;;5054175;28;20028;-65
2021/04/30 04:40:13;;;;;;;123.03;63.85;;;7.60;99.90;;;;;;5054073;28;20025;-65
2021/04/30 04:42:39;;;;;;;122.78;63.92;;;7.50;99.90;;;;;;5054078;28;20409;-65
2021/04/30 04:45:06;;;;;;;133.13;67.13;;;7.50;99.90;;;;;;5020387;28;20033;-65
2021/04/30 04:47:32;;;;;;;139.82;68.40;;;7.50;99.90;;;;;;5053977;28;20113;-65
2021/04/30 04:49:57;;;;;;;137.00;68.30;;;7.40;99.90;;;;;;5035570;28;20060;-65
2021/04/30 04:52:23;;;;;;;148.32;71.97;;;7.40;99.90;;;;;;5035508;28;20127;-66
2021/04/30 04:54:49;;;;;;;145.50;71.43;;;7.30;99.90;;;;;;5035183;28;20083;-65
2021/04/30 04:57:14;;;;;;;138.95;71.05;;;7.30;99.90;;;;;;5035422;28;20028;-65
2021/04/30 04:59:40;;;;;;;149.75;73.13;;;7.40;99.90;;;;;;5053297;28;20096;-65
2021/04/30 05:02:06;;;;;;;141.38;71.50;;;7.40;99.90;;;;;;5053544;28;20025;-66
2021/04/30 05:04:31;;;;;;;151.82;71.15;;;7.30;99.90;;;;;;5035728;28;20147;-66
2021/04/30 05:06:57;;;;;;;151.45;73.18;;;7.40;99.90;;;;;;5053767;28;20033;-65
2021/04/30 05:09:23;;;;;;;162.07;74.70;;;7.30;99.90;;;;;;5053188;28;20036;-65
2021/04/30 05:11:49;;;;;;;154.57;75.80;;;7.40;99.90;;;;;;5036124;28;20028;-65
2021/04/30 05:14:15;;;;;;;160.18;74.70;;;7.40;99.90;;;;;;5053741;28;20028;-65
2021/04/30 05:16:40;;;;;;;155.45;74.43;;;7.30;99.90;;;;;;5053392;28;20351;-66
2021/04/30 05:19:06;;;;;;;151.20;73.15;;;7.30;99.90;;;;;;5053716;28;20484;-63
2021/04/30 05:21:32;;;;;;;152.40;73.53;;;7.30;99.90;;;;;;5019672;28;20025;-63
2021/04/30 05:23:59;;;;;;;153.20;73.35;;;7.40;99.90;;;;;;5053394;28;20102;-63
2021/04/30 05:26:28;;;;;;;151.25;74.20;;;7.30;99.90;;;;;;5053362;28;20112;-66
2021/04/30 05:28:55;;;;;;;152.20;74.97;;;7.40;99.90;;;;;;5053611;28;20024;-66
2021/04/30 05:31:21;;;;;;;153.27;73.22;;;7.50;99.90;;;;;;5035660;28;20032;-66
2021/04/30 05:33:46;;;;;;;156.30;71.60;;;7.50;99.90;;;;;;5035470;28;20116;-65
2021/04/30 05:36:12;;;;;;;149.07;73.35;;;7.60;99.90;;;;;;5052897;28;20029;-65
2021/04/30 05:38:37;;;;;;;153.68;75.85;;;7.60;99.90;;;;;;5056067;28;20029;-65
2021/04/30 05:41:03;;;;;;;145.38;72.35;;;7.60;99.90;;;;;;5057415;28;20031;-66
2021/04/30 05:43:28;;;;;;;143.45;69.90;;;7.60;99.90;;;;;;5057071;28;20037;-65
2021/04/30 05:45:54;;;;;;;145.38;69.72;;;7.60;99.90;;;;;;5056998;28;20035;-65
2021/04/30 05:48:19;;;;;;;139.02;67.63;;;7.70;99.90;;;;;;5057232;28;20028;-65
2021/04/30 05:50:45;;;;;;;140.43;68.95;;;7.80;99.90;;;;;;5057198;28;20036;-65
2021/04/30 05:53:10;;;;;;;139.07;68.45;;;7.90;99.90;;;;;;5057076;28;20100;-65
2021/04/30 05:55:36;;;;;;;132.35;69.18;;;7.90;99.90;;;;;;5056489;28;20148;-65
2021/04/30 05:58:02;;;;;;;139.15;69.43;;;7.90;99.90;;;;;;5056754;28;20501;-66
2021/04/30 06:00:28;;;;;;;128.82;64.15;;;7.90;99.90;;;;;;5056609;28;20070;-65
2021/04/30 06:02:54;;;;;;;129.35;66.22;;;7.90;99.90;;;;;;5056703;28;20092;-65
2021/04/30 06:05:19;;;;;;;130.60;66.35;;;8.00;99.90;;;;;;5056944;28;20021;-66
2021/04/30 06:07:45;;;;;;;126.88;62.70;;;8.00;99.90;;;;;;5041086;28;20490;-65
2021/04/30 06:10:11;;;;;;;125.43;61.92;;;8.00;99.90;;;;;;5036270;28;20036;-65
2021/04/30 06:12:37;;;;;;;122.10;64.35;;;8.00;99.90;;;;;;5018443;28;20025;-65
2021/04/30 06:15:03;;;;;;;119.15;60.65;;;8.00;99.90;;;;;;5036437;28;20026;-65
2021/04/30 06:17:29;;;;;;;127.50;62.58;;;8.00;99.90;;;;;;5036523;28;20025;-65
2021/04/30 06:19:54;;;;;;;120.53;61.28;;;8.10;99.90;;;;;;5036660;28;20104;-66
2021/04/30 06:22:20;;;;;;;117.57;61.95;;;8.10;99.90;;;;;;5036598;28;20022;-63
2021/04/30 06:24:46;;;;;;;126.85;61.75;;;8.20;99.90;;;;;;5036282;28;20446;-65
2021/04/30 06:27:11;;;;;;;122.72;61.70;;;8.10;99.90;;;;;;5036226;28;20017;-66
2021/04/30 06:29:37;;;;;;;121.43;60.80;;;8.10;99.90;;;;;;5036507;28;20037;-66
2021/04/30 06:32:03;;;;;;;121.55;61.13;;;8.20;99.90;;;;;;5017888;28;20025;-66
2021/04/30 06:34:28;;;;;;;122.88;61.03;;;8.20;99.90;;;;;;5035971;28;20110;-66
2021/04/30 06:36:55;;;;;;;117.45;60.42;;;8.20;99.90;;;;;;5035207;28;20037;-66
2021/04/30 06:39:21;;;;;;;128.38;61.55;;;8.20;99.90;;;;;;5035659;28;20021;-66
2021/04/30 06:41:47;;;;;;;118.50;59.53;;;8.20;99.90;;;;;;5034938;28;20035;-65
2021/04/30 06:44:13;;;;;;;112.10;58.33;;;8.20;99.90;;;;;;5013541;28;20025;-65
2021/04/30 06:46:39;;;;;;;119.25;59.25;;;8.30;99.90;;;;;;5038195;28;20022;-66
2021/04/30 06:49:04;;;;;;;120.38;59.70;;;8.40;99.90;;;;;;5034879;28;20445;-66
2021/04/30 06:51:30;;;;;;;112.10;59.47;;;8.50;99.90;;;;;;5035056;28;20034;-65
2021/04/30 06:53:56;;;;;;;119.18;56.83;;;8.60;99.90;;;;;;5034773;28;20029;-65
2021/04/30 06:56:25;;;;;;;111.30;59.50;;;8.60;99.90;;;;;;5016173;28;20045;-65
2021/04/30 06:58:50;;;;;;;126.00;60.42;;;8.60;99.90;;;;;;5034344;28;20383;-66
2021/04/30 07:01:16;;;;;;;107.05;56.75;;;8.80;99.90;;;;;;5035477;28;20029;-65
2021/04/30 07:03:42;;;;;;;114.85;56.50;;;8.80;99.90;;;;;;5035008;28;20101;-64
2021/04/30 07:06:08;;;;;;;102.85;54.55;;;8.80;99.90;;;;;;5034682;28;20033;-65
2021/04/30 07:08:33;;;;;;;108.30;55.75;;;8.80;99.90;;;;;;5034863;28;20029;-65
2021/04/30 07:11:00;;;;;;;108.72;54.90;;;8.90;99.90;;;;;;5034941;28;20064;-66
2021/04/30 07:13:26;;;;;;;104.60;51.30;;;8.90;99.90;;;;;;5034856;28;20471;-66
2021/04/30 07:15:51;;;;;;;91.72;51.03;;;9.00;99.90;;;;;;5000438;28;20045;-65
2021/04/30 07:18:17;;;;;;;100.63;55.92;;;9.00;99.90;;;;;;5034399;28;20076;-66
2021/04/30 07:20:45;;;;;;;103.35;55.58;;;9.10;99.90;;;;;;5034408;28;20506;-65
2021/04/30 07:23:11;;;;;;;105.00;55.20;;;9.20;99.90;;;;;;5034450;28;20025;-66
2021/04/30 07:25:36;;;;;;;113.18;61.53;;;9.40;99.90;;;;;;5034395;28;20032;-66
2021/04/30 07:28:02;;;;;;;116.82;61.88;;;9.40;99.90;;;;;;5016680;28;20438;-65
2021/04/30 07:30:33;;;;;;;111.35;59.75;;;9.50;99.90;;;;;;5034890;28;20033;-65
2021/04/30 07:32:58;;;;;;;108.68;58.38;;;9.50;99.90;;;;;;5034443;28;20053;-65
2021/04/30 07:35:24;;;;;;;117.57;59.45;;;9.70;99.90;;;;;;5033997;28;20506;-66
2021/04/30 07:37:49;;;;;;;111.95;60.08;;;9.70;99.90;;;;;;5033637;28;20113;-66
2021/04/30 07:40:15;;;;;;;123.25;62.28;;;9.80;99.90;;;;;;5033862;28;20030;-65
2021/04/30 07:42:43;;;;;;;119.05;59.25;;;9.70;99.90;;;;;;5033410;28;20113;-66
2021/04/30 07:45:09;;;;;;;113.20;58.88;;;9.90;99.90;;;;;;5015279;28;20086;-66
2021/04/30 07:47:35;;;;;;;120.32;60.50;;;9.90;99.90;;;;;;5031529;28;20018;-65
2021/04/30 07:50:00;;;;;;;106.47;58.22;;;9.80;99.90;;;;;;5015249;28;20394;-66
2021/04/30 07:52:26;;;;;;;106.47;56.25;;;9.80;99.90;;;;;;5032769;28;20036;-66
2021/04/30 07:54:51;;;;;;;110.53;56.45;;;9.80;99.90;;;;;;5032370;28;20041;-66
2021/04/30 07:57:17;;;;;;;111.10;57.25;;;9.80;99.90;;;;;;5014797;28;20036;-66
2021/04/30 07:59:42;;;;;;;110.50;56.83;;;9.80;99.90;;;;;;5033440;28;20088;-65
2021/04/30 08:02:09;;;;;;;112.68;57.95;;;9.70;99.90;;;;;;5033246;28;20075;-66
2021/04/30 08:04:34;;;;;;;104.20;53.65;;;9.70;99.90;;;;;;5032548;28;20048;-66
2021/04/30 08:07:00;;;;;;;102.65;53.22;;;9.80;99.90;;;;;;5033419;28;20442;-65
2021/04/30 08:09:25;;;;;;;96.35;51.50;;;9.80;99.90;;;;;;5033749;28;20034;-65
2021/04/30 08:11:51;;;;;;;100.93;52.67;;;9.80;99.90;;;;;;5033161;28;20035;-65
2021/04/30 08:14:17;;;;;;;124.40;60.58;;;9.80;99.90;;;;;;5033513;28;20505;-65
2021/04/30 08:16:42;;;;;;;132.10;63.20;;;9.80;99.90;;;;;;5033210;28;20025;-66
2021/04/30 08:19:08;;;;;;;153.35;67.55;;;9.80;99.90;;;;;;5033457;28;20450;-65
2021/04/30 08:21:34;;;;;;;141.65;65.97;;;9.80;99.90;;;;;;5015101;28;20043;-65
2021/04/30 08:24:00;;;;;;;142.05;65.90;;;9.90;99.90;;;;;;5015303;28;20383;-66
2021/04/30 08:26:26;;;;;;;133.88;60.90;;;9.90;99.90;;;;;;5015334;28;20029;-66
2021/04/30 08:28:53;;;;;;;145.40;62.60;;;9.90;99.90;;;;;;5033469;28;20021;-65
2021/04/30 08:31:22;;;;;;;146.00;65.60;;;9.70;99.90;;;;;;5031664;28;20434;-65
2021/04/30 08:33:48;;;;;;;140.07;63.53;;;9.50;99.90;;;;;;5016194;28;20557;-66
2021/04/30 08:36:13;;;;;;;132.23;65.45;;;9.60;99.90;;;;;;5032707;28;20076;-65
2021/04/30 08:38:39;;;;;;;133.45;64.90;;;9.70;99.90;;;;;;5033208;28;20030;-65
2021/04/30 08:41:05;;;;;;;132.90;62.25;;;9.80;99.90;;;;;;5032755;28;20475;-65
2021/04/30 08:43:30;;;;;;;132.30;63.40;;;9.90;99.90;;;;;;5032912;28;20030;-66
2021/04/30 08:45:56;;;;;;;124.97;60.30;;;9.90;99.90;;;;;;5014845;28;20552;-66
2021/04/30 08:48:25;;;;;;;130.63;61.33;;;10.00;99.90;;;;;;5032730;28;20117;-65
2021/04/30 08:50:54;;;;;;;132.13;63.78;;;10.00;99.90;;;;;;5033007;28;20036;-66
2021/04/30 08:53:20;;;;;;;123.45;62.03;;;10.10;99.90;;;;;;5033017;28;20022;-66
2021/04/30 08:55:48;;;;;;;118.45;59.25;;;10.10;99.90;;;;;;5032679;28;20044;-65
2021/04/30 08:58:14;;;;;;;119.82;57.90;;;10.10;99.90;;;;;;5032986;28;20023;-65
2021/04/30 09:00:40;;;;;;;127.57;60.10;;;10.20;99.90;;;;;;5032622;28;20029;-66
2021/04/30 09:03:08;;;;;;;118.53;58.72;;;10.10;99.90;;;;;;5032152;28;20075;-66
2021/04/30 09:05:34;;;;;;;120.47;59.50;;;10.00;99.90;;;;;;5032298;28;20027;-65
2021/04/30 09:08:00;;;;;;;112.90;56.55;;;9.90;99.90;;;;;;5032735;28;20466;-65
2021/04/30 09:10:28;;;;;;;128.93;59.60;;;10.00;99.90;;;;;;5032554;28;20390;-65
2021/04/30 09:13:05;;;;;;;126.82;57.55;;;10.00;99.90;;;;;;5017742;28;20064;-66
2021/04/30 09:15:30;;;;;;;129.10;59.08;;;9.90;99.90;;;;;;5035613;28;20045;-65
2021/04/30 09:18:14;;;;;;;128.27;59.95;;;9.80;99.90;;;;;;5035326;28;20072;-65
2021/04/30 09:20:40;;;;;;;123.50;59.17;;;9.70;99.90;;;;;;5036787;28;20502;-65
2021/04/30 09:23:47;;;;;;;125.47;60.05;;;9.70;99.90;;;;;;5039108;28;20399;-66
2021/04/30 09:26:32;;;;;;;127.50;60.20;;;9.80;99.90;;;;;;5050026;28;20447;-66
2021/04/30 09:29:08;;;;;;;132.60;61.45;;;9.80;99.90;;;;;;5044543;28;20033;-65
2021/04/30 09:31:39;;;;;;;137.52;62.50;;;9.80;99.90;;;;;;5046342;28;20124;-66
2021/04/30 09:34:29;;;;;;;130.18;58.63;;;9.80;99.90;;;;;;5037571;28;20029;-66
2021/04/30 09:37:09;;;;;;;127.90;59.53;;;9.90;99.90;;;;;;5050602;28;20360;-66
2021/04/30 09:39:53;;;;;;;128.23;59.72;;;9.80;99.90;;;;;;5046836;28;20026;-65
2021/04/30 09:42:21;;;;;;;140.77;60.03;;;9.80;99.90;;;;;;5043431;28;20021;-66
2021/04/30 09:44:50;;;;;;;127.53;56.47;;;9.80;99.90;;;;;;5056453;28;20100;-66
2021/04/30 09:50:00;;;;;;;136.77;58.53;;;9.80;99.90;;;;;;5110855;27;20758;-66
2021/04/30 09:52:27;;;;;;;139.07;59.72;;;9.80;99.90;;;;;;5091422;28;20028;-65
2021/04/30 09:54:54;;;;;;;140.68;61.30;;;9.70;99.90;;;;;;5098116;28;20732;-66
2021/04/30 09:57:24;;;;;;;133.85;59.33;;;9.60;99.90;;;;;;5106868;28;20028;-63
2021/04/30 10:00:09;;;;;;;126.80;55.53;;;9.60;99.90;;;;;;5110464;28;20089;-63
2021/04/30 10:02:35;;;;;;;129.80;58.67;;;9.60;99.90;;;;;;5110786;28;20034;-63
2021/04/30 10:05:14;;;;;;;126.82;58.35;;;9.60;99.90;;;;;;5108222;28;20071;-63
2021/04/30 10:07:41;;;;;;;126.82;58.92;;;9.60;99.90;;;;;;5108912;28;20468;-65
2021/04/30 10:10:13;;;;;;;142.05;62.42;;;9.50;99.90;;;;;;5105253;28;20111;-65
2021/04/30 10:12:41;;;;;;;137.02;59.67;;;9.60;99.90;;;;;;5097404;28;20024;-65
2021/04/30 10:15:09;;;;;;;140.13;61.60;;;9.60;99.90;;;;;;5101443;28;20047;-65
2021/04/30 10:17:36;;;;;;;135.23;59.00;;;9.60;99.90;;;;;;5094954;28;20069;-65
2021/04/30 10:20:03;;;;;;;127.68;56.88;;;9.70;99.90;;;;;;5108084;28;20031;-65
2021/04/30 10:22:29;;;;;;;133.30;58.38;;;9.60;99.90;;;;;;5101771;28;20062;-65
2021/04/30 10:24:57;;;;;;;126.75;55.22;;;9.60;99.90;;;;;;5108860;28;20065;-66
2021/04/30 10:27:32;;;;;;;133.30;56.65;;;9.70;99.90;;;;;;5110295;28;20019;-64
2021/04/30 10:30:07;;;;;;;124.22;55.08;;;9.60;99.90;;;;;;5095096;28;20387;-65
2021/04/30 10:32:45;;;;;;;118.57;56.40;;;9.60;99.90;;;;;;5109198;28;20023;-65
2021/04/30 10:35:12;;;;;;;127.57;54.90;;;9.70;99.90;;;;;;5109588;28;20064;-66
2021/04/30 10:37:41;;;;;;;117.07;53.25;;;9.80;99.90;;;;;;5109283;28;20101;-66
2021/04/30 10:40:11;;;;;;;112.72;52.55;;;9.80;99.90;;;;;;5103092;28;20149;-65
2021/04/30 10:42:43;;;;;;;116.75;53.85;;;10.00;99.90;;;;;;5108498;28;20480;-66
2021/04/30 10:45:12;;;;;;;115.95;53.20;;;10.00;99.90;;;;;;5108753;28;20522;-65
2021/04/30 10:47:38;;;;;;;123.25;55.72;;;9.90;99.90;;;;;;5106608;28;20038;-65
2021/04/30 10:50:20;;;;;;;120.97;55.08;;;9.90;99.90;;;;;;5109802;28;20499;-65
2021/04/30 10:52:47;;;;;;;106.80;52.13;;;10.00;99.90;;;;;;5107622;28;20028;-65
2021/04/30 10:55:16;;;;;;;108.53;48.80;;;10.00;99.90;;;;;;5107729;28;20028;-65
2021/04/30 11:00:28;;;;;;;98.50;48.88;;;10.20;99.90;;;;;;5105838;27;20757;-65
2021/04/30 11:03:15;;;;;;;106.07;50.47;;;10.40;99.90;;;;;;5089831;28;20024;-65
2021/04/30 11:05:59;;;;;;;106.97;49.58;;;10.40;99.90;;;;;;5089039;28;20016;-65
2021/04/30 11:08:44;;;;;;;;;;;10.30;99.90;;;;;;5089893;28;20060;-65
2021/04/30 11:11:10;;;;;;;97.70;48.72;;;10.40;99.90;;;;;;5088518;28;20412;-65
2021/04/30 11:13:35;;;;;;;96.15;46.38;;;10.40;99.90;;;;;;5088948;28;20037;-65
2021/04/30 11:16:02;;;;;;;87.28;44.00;;;10.30;99.90;;;;;;5088978;28;20059;-65
2021/04/30 11:18:30;;;;;;;89.32;42.47;;;10.30;99.90;;;;;;5089203;28;20032;-65
2021/04/30 11:20:59;;;;;;;92.68;45.10;;;10.40;99.90;;;;;;5088396;28;20028;-65
2021/04/30 11:23:38;;;;;;;88.88;44.65;;;10.40;99.90;;;;;;5088724;28;20381;-65
2021/04/30 11:26:07;;;;;;;75.90;37.38;;;10.40;99.90;;;;;;5088355;28;20363;-65
2021/04/30 11:34:20;;;;;;;82.20;38.67;;;10.30;99.90;;;;;;5109716;27;20736;-63
2021/04/30 11:36:51;;;;;;;78.13;39.50;;;10.40;99.90;;;;;;5087713;28;20023;-66
2021/04/30 11:39:21;;;;;;;71.85;37.65;;;10.40;99.90;;;;;;5087962;28;20034;-65
2021/04/30 11:41:47;;;;;;;77.70;39.05;;;10.50;99.90;;;;;;5089187;28;20024;-66
2021/04/30 11:44:16;;;;;;;76.15;37.83;;;10.70;99.90;;;;;;5088916;28;20025;-66
2021/04/30 11:46:42;;;;;;;66.90;36.13;;;10.70;99.90;;;;;;5087550;28;20504;-65
2021/04/30 11:49:07;;;;;;;73.18;36.67;;;10.70;99.90;;;;;;5089034;28;20047;-66
2021/04/30 11:51:48;;;;;;;69.18;35.33;;;10.80;99.90;;;;;;5087539;28;20029;-66
2021/04/30 11:54:19;;;;;;;65.75;36.42;;;10.90;99.90;;;;;;5071222;28;20031;-65
2021/04/30 11:56:45;;;;;;;66.15;35.80;;;11.00;99.90;;;;;;5088187;28;20012;-65
2021/04/30 11:59:19;;;;;;;70.57;37.50;;;11.00;99.90;;;;;;5088679;28;20107;-66
2021/04/30 12:02:01;;;;;;;66.28;36.47;;;11.10;99.90;;;;;;5088473;28;20020;-65
2021/04/30 12:04:49;;;;;;;60.90;33.55;;;11.10;99.90;;;;;;5087696;28;20473;-66
2021/04/30 12:07:16;;;;;;;71.03;35.38;;;11.10;99.90;;;;;;5089126;28;20100;-65
2021/04/30 12:09:42;;;;;;;65.38;35.20;;;11.00;99.90;;;;;;5087492;28;20382;-66
2021/04/30 12:12:19;;;;;;;70.18;36.53;;;11.00;99.90;;;;;;5088514;28;20028;-66
2021/04/30 12:14:48;;;;;;;76.53;36.50;;;11.10;99.90;;;;;;5089024;28;20041;-66
2021/04/30 12:17:35;;;;;;;73.00;37.67;;;11.20;99.90;;;;;;5080754;28;20151;-65
2021/04/30 12:20:19;;;;;;;69.10;37.20;;;11.40;99.90;;;;;;5086119;28;20017;-66
2021/04/30 12:22:52;;;;;;;73.53;36.08;;;11.50;99.90;;;;;;5087705;28;20051;-66
2021/04/30 12:25:27;;;;;;;;;;;11.60;99.90;;;;;;5085591;28;20037;-66
2021/04/30 12:27:54;;;;;;;65.20;33.13;;;11.70;99.90;;;;;;5087666;28;19908;-66
2021/04/30 12:30:29;;;;;;;72.93;34.45;;;11.60;99.90;;;;;;5085198;28;20020;-66
2021/04/30 12:32:55;;;;;;;71.25;36.47;;;11.60;99.90;;;;;;5085471;28;20043;-66
2021/04/30 12:35:21;;;;;;;75.13;36.47;;;11.70;99.90;;;;;;5088289;28;20389;-66
2021/04/30 12:37:47;;;;;;;77.50;37.55;;;11.80;99.90;;;;;;5070276;28;20027;-66
2021/04/30 12:40:13;;;;;;;72.60;36.78;;;11.50;99.90;;;;;;5088244;28;20024;-66
2021/04/30 12:42:48;;;;;;;67.13;37.13;;;11.80;99.90;;;;;;5088392;28;20024;-66
2021/04/30 12:45:16;;;;;;;75.47;36.58;;;11.90;99.90;;;;;;5075153;28;20021;-65